Flight Track Log - Related Links

Times and Time Zones

All times are in EDT time to prevent confusion due to time zone crossing. See the AWE285P flight status page for this flight to view local times or setup timezone preferences in your user account.


Time Position Orientation Groundspeed Altitude Reporting Facility
EDT Latitude Longitude Course Direction KTS MPH feet Rate Location/Type
Sat 11:56:48 PM 33.4333 -112.0333 220° Southwest 155 178 2,200  Level Phoenix TRACON
Sat 11:57:18 PM 33.4167 -112.0500 220° Southwest 151 174 2,800 1,000 Climbing Phoenix TRACON
Sat 11:58:12 PM 33.4000 -112.1167 253° West 210 242 3,600 1,224 Climbing Phoenix TRACON
Sat 11:58:56 PM 33.3936 -112.1561 259° West 219 252 4,800 1,886 Climbing Albuquerque Center
Sat 11:59:57 PM 33.4011 -112.2481 276° West 278 320 6,900 2,262 Climbing Albuquerque Center
Sun 12:00:58 AM 33.4097 -112.3444 276° West 291 335 9,400 2,066 Climbing Albuquerque Center
Sun 12:01:59 AM 33.4197 -112.4497 277° West 315 362 11,100 1,230 Climbing Albuquerque Center
Sun 12:03:00 AM 33.4317 -112.5764 276° West 378 435 11,900 1,279 Climbing Albuquerque Center
Sun 12:04:01 AM 33.4439 -112.7206 276° West 410 472 13,700 1,785 Climbing Albuquerque Center
Sun 12:05:01 AM 33.4597 -112.8617 278° West 423 487 15,500 1,686 Climbing Albuquerque Center
Sun 12:06:02 AM 33.4889 -113.0047 284° West 439 505 17,100 1,721 Climbing Albuquerque Center
Sun 12:07:03 AM 33.5175 -113.1544 283° West 457 526 19,000 1,721 Climbing Albuquerque Center
Sun 12:08:04 AM 33.5467 -113.3058 283° West 465 535 20,600 1,623 Climbing Albuquerque Center
Sun 12:09:05 AM 33.5744 -113.4608 282° West 474 545 22,300 1,537 Climbing Albuquerque Center
Sun 12:10:05 AM 33.6044 -113.6153 283° West 477 549 23,700 1,140 Climbing Albuquerque Center
Sun 12:11:06 AM 33.6342 -113.7722 283° West 485 558 24,600 885 Climbing Albuquerque Center
Sun 12:12:07 AM 33.6617 -113.9358 281° West 495 570 25,500 1,131 Climbing Albuquerque Center
Sun 12:13:08 AM 33.6908 -114.1006 282° West 501 577 26,900 1,388 Climbing Albuquerque Center
Sun 12:14:08 AM 33.7483 -114.2925 290° West 509 586 28,300 1,289 Climbing Albuquerque Center
Sun 12:15:09 AM 33.8025 -114.4444 293° West 503 579 29,500 1,230 Climbing Albuquerque Center
Sun 12:16:10 AM 33.8575 -114.5958 294° West 499 574 30,800 1,087 Climbing Albuquerque Center
Sun 12:17:38 AM 33.9283 -114.7839 294° West 497 572 32,200 1,120 Climbing Los Angeles Center
Sun 12:18:40 AM 33.9942 -114.9658 294° West 496 571 33,600 878 Climbing Los Angeles Center
Sun 12:19:41 AM 34.0483 -115.1175 293° West 495 570 34,000 148 Climbing Los Angeles Center
Sun 12:20:42 AM 34.1017 -115.2681 293° West 492 566 33,900  Descending Los Angeles Center
Sun 12:21:43 AM 34.1550 -115.4208 293° West 495 570 34,000 49 Climbing Los Angeles Center
Sun 12:22:44 AM 34.2089 -115.5736 293° West 496 571 34,000  Level Los Angeles Center
Sun 12:23:45 AM 34.2717 -115.7542 293° West 493 567 34,000  Level Los Angeles Center
Sun 12:24:46 AM 34.3244 -115.9058 293° West 491 565 34,000  Level Los Angeles Center
Sun 12:25:47 AM 34.3778 -116.0633 292° West 497 572 34,000  Level Los Angeles Center
Sun 12:26:48 AM 34.4331 -116.2167 294° West 499 574 34,000  Level Los Angeles Center
Sun 12:27:50 AM 34.4850 -116.3708 292° West 497 572 34,000  Level Los Angeles Center
Sun 12:28:51 AM 34.5367 -116.5250 292° West 495 570 34,000  Level Los Angeles Center
Sun 12:29:52 AM 34.5892 -116.6800 292° West 496 571 34,000  Level Los Angeles Center
Sun 12:30:53 AM 34.6417 -116.8344 292° West 497 572 34,000  Level Los Angeles Center
Sun 12:31:54 AM 34.6942 -116.9892 292° West 495 570 34,000  Level Los Angeles Center
Sun 12:32:55 AM 34.7456 -117.1453 292° West 497 572 34,000  Level Los Angeles Center
Sun 12:33:56 AM 34.7969 -117.3017 292° West 497 572 34,000  Level Los Angeles Center
Sun 12:34:57 AM 34.8478 -117.4581 292° West 496 571 34,000  Level Los Angeles Center
Sun 12:35:58 AM 34.8986 -117.6192 291° West 503 579 34,000  Level Los Angeles Center
Sun 12:36:59 AM 34.9525 -117.7789 292° West 504 580 34,000  Level Los Angeles Center
Sun 12:38:00 AM 35.0039 -117.9319 292° West 489 563 34,000  Level Los Angeles Center
Sun 12:39:13 AM 35.0547 -118.0881 292° West 493 567 34,000  Level Los Angeles Center
Sun 12:40:15 AM 35.1142 -118.2717 292° West 481 554 34,000  Level Los Angeles Center
Sun 12:41:16 AM 35.1717 -118.4564 291° West 483 556 34,000  Level Los Angeles Center
Sun 12:42:29 AM 35.2206 -118.5944 293° West 478 550 34,000  Level Los Angeles Center
Sun 12:43:30 AM 35.2792 -118.7783 291° West 481 554 34,000  Level Los Angeles Center
Sun 12:44:43 AM 35.3297 -118.9289 292° West 472 543 34,000  Level Los Angeles Center
Sun 12:45:44 AM 35.3875 -119.1125 291° West 478 550 34,000 -49 Level Los Angeles Center
Sun 12:46:45 AM 35.4350 -119.2625 291° West 472 543 33,900  Descending Los Angeles Center
Sun 12:47:46 AM 35.4931 -119.4431 292° West 472 543 34,000 49 Climbing Los Angeles Center
Sun 12:48:47 AM 35.5417 -119.5939 292° West 472 543 34,000  Level Los Angeles Center
Sun 12:49:48 AM 35.5892 -119.7436 291° West 476 548 34,000  Level Los Angeles Center
Sun 12:50:49 AM 35.6364 -119.8925 291° West 468 539 34,000 -49 Level Los Angeles Center
Sun 12:51:50 AM 35.6853 -120.0461 291° West 487 560 33,900  Descending Los Angeles Center
Sun 12:52:51 AM 35.7322 -120.1969 291° West 483 556 34,000 49 Climbing Los Angeles Center
Sun 12:53:52 AM 35.7800 -120.3481 291° West 481 554 34,000  Level Los Angeles Center
Sun 12:55:06 AM 35.8378 -120.5281 292° West 474 545 34,000  Level Los Angeles Center
Sun 12:56:07 AM 35.9417 -120.6786 310° West 480 552 34,000 -246 Level Los Angeles Center
Sun 12:57:08 AM 36.0267 -120.8011 311° West 474 545 33,500 -1,773 Descending Los Angeles Center
Sun 12:58:19 AM 36.1297 -120.9453 312° West 474 545 30,100 -2,818 Descending Oakland Center
Sun 12:59:20 AM 36.2161 -121.0728 310° West 484 557 27,300 -3,074 Descending Oakland Center
Sun 01:00:20 AM 36.3128 -121.1797 318° Northwest 487 560 23,900 -3,223 Descending Oakland Center
Sun 01:01:21 AM 36.4289 -121.2494 334° Northwest 472 543 20,800 -3,590 Descending Oakland Center
Sun 01:02:22 AM 36.5411 -121.3186 334° Northwest 457 526 16,600 -4,017 Descending Oakland Center
Sun 01:03:22 AM 36.6436 -121.3828 333° Northwest 428 493 12,700 -2,727 Descending Oakland Center
Sun 01:04:23 AM 36.7311 -121.4386 333° Northwest 383 441 11,100 -1,339 Descending Oakland Center
Sun 01:05:23 AM 36.8094 -121.4844 335° Northwest 334 384 10,000 -1,289 Descending Oakland Center
Sun 01:06:24 AM 36.8797 -121.5317 332° Northwest 300 345 8,500 -1,537 Descending Oakland Center
Sun 01:07:24 AM 36.9539 -121.5781 333° Northwest 296 341 6,900 -1,438 Descending Oakland Center
Sun 01:08:25 AM 37.0239 -121.6244 332° Northwest 290 334 5,600 -934 Descending Oakland Center
Sun 01:09:26 AM 37.0875 -121.6653 333° Northwest 275 316 5,000 -248 Descending Oakland Center
Sun 01:10:26 AM 37.1442 -121.7003 334° Northwest 251 289 5,100 -248 Climbing Oakland Center
Sun 01:11:27 AM 37.1903 -121.7419 324° Northwest 218 251 4,500 -793 Descending Oakland Center
Sun 01:12:27 AM 37.2297 -121.7886 317° Northwest 205 236 3,500 -1,190 Descending Oakland Center
Sun 01:13:28 AM 37.2686 -121.8300 320° Northwest 194 223 2,100 -956 Descending Oakland Center
Sun 01:15:29 AM 37.3292 -121.8956 319° Northwest 143 165 600 -744 Descending Oakland Center
Sun 01:18:00 AM 37.3500 -121.9167 North  Level FlightAware Approximate

Login

Don't have an account? Register now (free) for customized features, flight alerts, and more!